Ambler, Pennsylvania
Current Conditions -  °F | °C
As of 9:35 PM on Thursday 20 Nov 2014 (Local Time) from KLOM Reporting Station
Clear Clear  
Wind Chill: -4°   Ceiling: Unl
Heat Index:   Visibility: 10mi
Dew Point: -11°   Wind: 7mph
Humidity: 44%   Direction: 300°WNW
Pressure: 30.02"   Gusts: NA
Location:  40.16°N, 75.22°W
Report Text: KLOM 210235Z AUTO 30006KT 10SM CLR 00/M11 A3002 RMK AO1
Loading
Personal Weather Stations






























Interactive Weather Map New forecast layout! Learn more

10-Day Weather Forecast

Advertisements
Track Severe Weather on mobile